Y City, Arkansas
Current Conditions -  °F | °C
As of 5:53 PM on Saturday 22 Nov 2014 (Local Time) from KMWT Reporting Station
Haze Haze  
Wind Chill: 55°   Ceiling: 4300
Heat Index: 55°   Visibility: 0.75mi
Dew Point: 53°   Wind: 0mph
Humidity: 93%   Direction: NA
Pressure: 29.95"   Gusts: NA
Location:  34.6537°N, 93.7483°W
Report Text: KMWT 222353Z AUTO 00000KT 3/4SM BR BKN043 13/12 A2995 RMK AO2 SLP139 T01280117 10167 20128 56006
Loading
Personal Weather Stations






























Interactive Weather Map New forecast layout! Learn more

10-Day Weather Forecast

Advertisements
Track Severe Weather on mobile